Time;durP1;ratioP1;P1;durP2;ratioP2;P2;SDS_P1;SDS_P2;PMS_P1;PMS_P2;Temp;Humidity;BMP_temperature;BMP_pressure;BME280_temperature;BME280_humidity;BME280_pressure;Samples;Min_cycle;Max_cycle;Signal;HPM_P1;HPM_P2
2023/01/27 00:04:07;;;;;;;;;;;;;;;2.41;100.00;102147.44;10525286;28;20391;-76
2023/01/27 00:09:07;;;;;;;;;;;;;;;2.35;100.00;102140.91;10526186;28;19927;-75
2023/01/27 00:14:07;;;;;;;;;;;;;;;2.24;100.00;102145.75;10525554;28;19919;-75
2023/01/27 00:19:08;;;;;;;;;;;;;;;2.31;100.00;102138.75;10489984;28;19927;-75
2023/01/27 00:29:28;;;;;;;;;;;;;;;2.68;100.00;102148.41;10497149;28;19920;-75
2023/01/27 00:34:28;;;;;;;;;;;;;;;2.78;100.00;102139.16;10501626;28;20021;-75
2023/01/27 00:39:29;;;;;;;;;;;;;;;2.77;100.00;102119.22;10484434;28;20431;-75
2023/01/27 00:44:29;;;;;;;;;;;;;;;2.83;100.00;102125.75;10483319;28;20371;-76
2023/01/27 00:49:29;;;;;;;;;;;;;;;2.86;100.00;102123.47;10464546;28;19920;-75
2023/01/27 00:54:30;;;;;;;;;;;;;;;2.79;100.00;102128.03;10495029;28;19927;-75
2023/01/27 00:59:30;;;;;;;;;;;;;;;2.77;100.00;102138.97;10523206;28;20027;-75
2023/01/27 01:04:30;;;;;;;;;;;;;;;2.74;100.00;102141.25;10525290;28;20427;-75
2023/01/27 01:09:31;;;;;;;;;;;;;;;2.72;100.00;102141.13;10495795;28;20384;-75
2023/01/27 01:14:31;;;;;;;;;;;;;;;2.69;100.00;102139.88;10523058;28;19927;-74
2023/01/27 01:19:31;;;;;;;;;;;;;;;2.71;100.00;102154.81;10506645;28;19920;-75
2023/01/27 01:24:32;;;;;;;;;;;;;;;2.73;100.00;102158.47;10508774;28;19920;-75
2023/01/27 01:29:32;;;;;;;;;;;;;;;2.70;100.00;102167.56;10513382;28;20372;-75
2023/01/27 01:34:32;;;;;;;;;;;;;;;2.69;100.00;102174.41;10522653;28;20005;-75
2023/01/27 01:39:33;;;;;;;;;;;;;;;2.68;100.00;102166.50;10475244;28;19924;-75
2023/01/27 01:44:33;;;;;;;;;;;;;;;2.67;100.00;102172.41;10503598;28;19920;-75
2023/01/27 01:49:35;;;;;;;;;;;;;;;2.63;100.00;102172.13;10522964;28;19916;-75
2023/01/27 01:54:46;;;;;;;;;;;;;;;2.62;100.00;102172.88;10505224;28;19916;-75
2023/01/27 01:59:48;;;;;;;;;;;;;;;2.62;100.00;102172.88;10479893;28;19922;-75
2023/01/27 02:04:56;;;;;;;;;;;;;;;2.61;100.00;102183.06;10463769;28;20401;-75
2023/01/27 02:09:56;;;;;;;;;;;;;;;2.60;100.00;102195.06;10466530;28;19912;-75
2023/01/27 02:14:57;;;;;;;;;;;;;;;2.59;100.00;102192.34;10496234;28;19921;-75
2023/01/27 02:20:01;;;;;;;;;;;;;;;2.54;100.00;102194.44;10466566;28;19928;-75
2023/01/27 02:25:05;;;;;;;;;;;;;;;2.52;100.00;102189.91;10470436;28;19916;-75
2023/01/27 02:30:06;;;;;;;;;;;;;;;2.52;100.00;102190.81;10458632;28;19950;-76
2023/01/27 02:35:07;;;;;;;;;;;;;;;2.49;100.00;102190.50;10474944;28;19962;-75
2023/01/27 02:40:08;;;;;;;;;;;;;;;2.50;100.00;102181.97;10487407;28;19947;-75
2023/01/27 02:45:08;;;;;;;;;;;;;;;2.49;100.00;102190.50;10511192;28;20403;-75
2023/01/27 02:50:09;;;;;;;;;;;;;;;2.49;100.00;102193.06;10496228;28;19932;-75
2023/01/27 02:55:09;;;;;;;;;;;;;;;2.49;100.00;102196.59;10510105;28;19916;-75
2023/01/27 03:00:12;;;;;;;;;;;;;;;2.46;100.00;102191.09;10491991;28;20328;-75
2023/01/27 03:05:14;;;;;;;;;;;;;;;2.46;100.00;102191.09;10506772;28;19920;-75
2023/01/27 03:10:14;;;;;;;;;;;;;;;2.47;100.00;102189.41;10511209;28;19964;-75
2023/01/27 03:20:35;;;;;;;;;;;;;;;2.47;100.00;102186.84;10493422;28;19973;-75
2023/01/27 03:25:35;;;;;;;;;;;;;;;2.44;100.00;102192.63;10493033;28;20329;-75
2023/01/27 03:30:35;;;;;;;;;;;;;;;2.41;100.00;102199.13;10526178;28;20284;-75
2023/01/27 03:35:46;;;;;;;;;;;;;;;2.44;100.00;102199.44;10525397;28;19927;-74
2023/01/27 03:46:17;;;;;;;;;;;;;;;2.34;100.00;102198.50;10470981;28;19924;-75
2023/01/27 03:51:17;;;;;;;;;;;;;;;2.31;100.00;102205.94;10468985;28;20360;-74
2023/01/27 03:56:18;;;;;;;;;;;;;;;2.34;100.00;102221.75;10490176;28;19924;-75
2023/01/27 04:01:19;;;;;;;;;;;;;;;2.40;100.00;102218.91;10450829;28;20026;-75
2023/01/27 04:11:55;;;;;;;;;;;;;;;2.37;100.00;102234.09;10472486;28;20019;-75
2023/01/27 04:16:58;;;;;;;;;;;;;;;2.30;100.00;102240.28;10472859;28;19920;-76
2023/01/27 04:21:58;;;;;;;;;;;;;;;2.24;100.00;102249.09;10508661;28;19927;-75
2023/01/27 04:27:00;;;;;;;;;;;;;;;2.18;100.00;102245.13;10487676;28;19921;-75
2023/01/27 04:32:00;;;;;;;;;;;;;;;2.07;100.00;102245.69;10484676;28;20006;-75
2023/01/27 04:37:02;;;;;;;;;;;;;;;1.85;100.00;102264.09;10481676;28;20284;-75
2023/01/27 04:42:02;;;;;;;;;;;;;;;1.82;100.00;102262.84;10482786;28;19948;-75
2023/01/27 04:47:03;;;;;;;;;;;;;;;1.83;100.00;102264.66;10466191;28;20018;-75
2023/01/27 04:52:03;;;;;;;;;;;;;;;1.85;100.00;102274.41;10505836;28;19918;-75
2023/01/27 04:57:04;;;;;;;;;;;;;;;1.81;100.00;102272.25;10524432;28;19931;-75
2023/01/27 05:02:04;;;;;;;;;;;;;;;1.86;100.00;102268.50;10523143;28;19920;-75
2023/01/27 05:07:05;;;;;;;;;;;;;;;1.79;100.00;102275.41;10521964;28;19924;-75
2023/01/27 05:12:05;;;;;;;;;;;;;;;1.75;100.00;102293.16;10523640;28;19928;-75
2023/01/27 05:17:05;;;;;;;;;;;;;;;1.70;100.00;102291.75;10498501;28;20356;-75
2023/01/27 05:22:06;;;;;;;;;;;;;;;1.64;100.00;102292.78;10494890;28;19921;-75
2023/01/27 05:27:06;;;;;;;;;;;;;;;1.61;100.00;102299.47;10489182;28;19919;-75
2023/01/27 05:32:06;;;;;;;;;;;;;;;1.62;100.00;102302.94;10477714;28;19979;-77
2023/01/27 05:37:07;;;;;;;;;;;;;;;1.55;100.00;102303.03;10486954;28;19928;-75
2023/01/27 05:42:07;;;;;;;;;;;;;;;1.44;100.00;102295.06;10486574;28;20364;-75
2023/01/27 05:47:08;;;;;;;;;;;;;;;1.15;100.00;102297.97;10480989;28;19921;-75
2023/01/27 05:52:08;;;;;;;;;;;;;;;1.15;100.00;102297.97;10479620;28;20380;-74
2023/01/27 05:57:08;;;;;;;;;;;;;;;1.23;100.00;102304.00;10483167;28;20027;-75
2023/01/27 06:02:09;;;;;;;;;;;;;;;1.29;100.00;102312.41;10487590;28;20376;-76
2023/01/27 06:07:09;;;;;;;;;;;;;;;1.32;100.00;102311.78;10491783;28;20348;-76
2023/01/27 06:12:09;;;;;;;;;;;;;;;1.33;100.00;102305.88;10525531;28;19931;-77
2023/01/27 06:17:10;;;;;;;;;;;;;;;1.25;100.00;102302.50;10527810;28;20014;-76
2023/01/27 06:22:10;;;;;;;;;;;;;;;1.21;100.00;102304.56;10500668;28;19928;-74
2023/01/27 06:27:10;;;;;;;;;;;;;;;1.22;100.00;102311.53;10505651;28;20394;-75
2023/01/27 06:32:10;;;;;;;;;;;;;;;1.29;100.00;102321.78;10493492;28;20007;-73
2023/01/27 06:37:11;;;;;;;;;;;;;;;1.35;100.00;102330.19;10455324;28;20042;-75
2023/01/27 06:42:11;;;;;;;;;;;;;;;1.43;100.00;102334.50;10511481;28;19920;-73
2023/01/27 06:47:11;;;;;;;;;;;;;;;1.44;100.00;102341.50;10504975;28;19971;-74
2023/01/27 06:52:12;;;;;;;;;;;;;;;1.52;100.00;102341.41;10476202;28;19928;-75
2023/01/27 06:57:12;;;;;;;;;;;;;;;1.54;100.00;102338.25;10497421;28;19946;-75
2023/01/27 07:02:12;;;;;;;;;;;;;;;1.57;100.00;102342.81;10478266;28;19928;-74
2023/01/27 07:07:13;;;;;;;;;;;;;;;1.60;100.00;102345.72;10495729;28;20383;-74
2023/01/27 07:12:13;;;;;;;;;;;;;;;1.64;100.00;102354.75;10486159;28;19934;-74
2023/01/27 07:17:13;;;;;;;;;;;;;;;1.63;100.00;102356.38;10503753;28;19986;-79
2023/01/27 07:22:14;;;;;;;;;;;;;;;1.65;100.00;102347.16;10483680;28;19920;-73
2023/01/27 07:27:14;;;;;;;;;;;;;;;1.69;100.00;102348.41;10458140;28;20019;-74
2023/01/27 07:32:14;;;;;;;;;;;;;;;1.68;100.00;102347.47;10516733;28;20125;-73
2023/01/27 07:37:15;;;;;;;;;;;;;;;1.74;100.00;102349.81;10495674;28;19975;-74
2023/01/27 07:42:16;;;;;;;;;;;;;;;1.78;100.00;102345.88;10503643;28;19985;-76
2023/01/27 07:47:16;;;;;;;;;;;;;;;1.86;100.00;102357.94;10506739;28;19928;-74
2023/01/27 07:52:16;;;;;;;;;;;;;;;1.88;100.00;102359.00;10505875;28;19924;-74
2023/01/27 07:57:17;;;;;;;;;;;;;;;1.93;100.00;102357.84;10472256;28;19924;-74
2023/01/27 08:02:17;;;;;;;;;;;;;;;1.99;100.00;102358.50;10458428;28;19924;-74
2023/01/27 08:07:17;;;;;;;;;;;;;;;2.08;100.00;102360.22;10461759;28;19925;-74
2023/01/27 08:12:18;;;;;;;;;;;;;;;2.12;100.00;102363.31;10466879;28;19994;-74
2023/01/27 08:17:18;;;;;;;;;;;;;;;2.17;100.00;102374.09;10460638;28;20387;-74
2023/01/27 08:22:21;;;;;;;;;;;;;;;2.24;100.00;102363.66;10466859;28;19928;-75
2023/01/27 08:27:22;;;;;;;;;;;;;;;2.40;100.00;102362.69;10466984;28;19947;-75
2023/01/27 08:32:22;;;;;;;;;;;;;;;2.45;100.00;102359.84;10486143;28;19965;-74
2023/01/27 08:37:22;;;;;;;;;;;;;;;2.51;100.00;102358.66;10477466;28;20439;-74
2023/01/27 08:42:23;;;;;;;;;;;;;;;2.48;100.00;102365.34;10490259;28;20010;-75
2023/01/27 08:47:23;;;;;;;;;;;;;;;2.48;100.00;102367.91;10486885;28;21376;-75
2023/01/27 08:52:26;;;;;;;;;;;;;;;2.51;100.00;102362.13;10473171;28;20378;-75
2023/01/27 08:57:26;;;;;;;;;;;;;;;2.50;100.00;102357.72;10498430;28;19920;-75
2023/01/27 09:02:27;;;;;;;;;;;;;;;2.53;100.00;102370.06;10505357;28;20287;-74
2023/01/27 09:07:27;;;;;;;;;;;;;;;2.56;100.00;102386.78;10497723;28;19916;-74
2023/01/27 09:12:27;;;;;;;;;;;;;;;2.58;100.00;102384.38;10482485;28;19920;-75
2023/01/27 09:17:28;;;;;;;;;;;;;;;2.62;100.00;102383.97;10472290;28;19959;-75
2023/01/27 09:22:28;;;;;;;;;;;;;;;2.62;100.00;102387.44;10503261;28;19927;-75
2023/01/27 09:27:28;;;;;;;;;;;;;;;2.66;100.00;102400.69;10483726;28;19920;-75
2023/01/27 09:32:29;;;;;;;;;;;;;;;2.70;100.00;102405.41;10500730;28;19976;-75
2023/01/27 09:37:29;;;;;;;;;;;;;;;2.79;100.00;102407.31;10499056;28;20607;-75
2023/01/27 09:42:41;;;;;;;;;;;;;;;2.87;100.00;102413.25;10471009;28;19926;-75
2023/01/27 09:47:45;;;;;;;;;;;;;;;2.90;100.00;102408.41;10487834;28;19917;-75
2023/01/27 09:53:03;;;;;;;;;;;;;;;2.94;100.00;102402.78;10509342;28;19920;-74
2023/01/27 09:58:13;;;;;;;;;;;;;;;2.95;100.00;102411.47;10505203;28;19999;-75
2023/01/27 10:03:22;;;;;;;;;;;;;;;2.98;100.00;102418.63;10512080;28;20375;-75
2023/01/27 10:08:42;;;;;;;;;;;;;;;3.03;100.00;102414.84;10494049;28;20295;-74
2023/01/27 10:13:42;;;;;;;;;;;;;;;3.07;100.00;102414.41;10476491;28;20391;-74
2023/01/27 10:18:55;;;;;;;;;;;;;;;3.19;100.00;102415.66;10471401;28;19935;-74
2023/01/27 10:23:56;;;;;;;;;;;;;;;3.32;100.00;102407.50;10474115;28;19973;-75
2023/01/27 10:29:19;;;;;;;;;;;;;;;3.40;100.00;102404.75;10511959;28;19995;-74
2023/01/27 10:34:31;;;;;;;;;;;;;;;3.35;100.00;102407.81;10465945;28;20264;-75
2023/01/27 10:39:47;;;;;;;;;;;;;;;3.41;100.00;102406.59;10488556;28;19942;-75
2023/01/27 10:44:48;;;;;;;;;;;;;;;3.42;100.00;102411.91;10464675;28;19929;-74
2023/01/27 10:50:14;;;;;;;;;;;;;;;3.35;100.00;102404.28;10446866;28;19916;-75
2023/01/27 10:55:50;;;;;;;;;;;;;;;3.27;100.00;102406.09;10445919;28;19920;-75
2023/01/27 11:00:50;;;;;;;;;;;;;;;3.30;100.00;102408.06;10395620;28;20280;-75
2023/01/27 11:05:51;;;;;;;;;;;;;;;3.31;100.00;102402.13;10444824;28;19917;-75
2023/01/27 11:16:15;;;;;;;;;;;;;;;3.53;100.00;102389.72;10446322;28;19925;-74
2023/01/27 11:21:19;;;;;;;;;;;;;;;3.60;100.00;102391.22;10473587;28;19924;-75
2023/01/27 11:26:20;;;;;;;;;;;;;;;3.66;100.00;102381.47;10461968;28;19928;-74
2023/01/27 11:31:39;;;;;;;;;;;;;;;3.70;100.00;102377.53;10447233;28;19917;-74
2023/01/27 11:36:39;;;;;;;;;;;;;;;3.76;100.00;102380.75;10461194;28;20284;-74
2023/01/27 11:41:40;;;;;;;;;;;;;;;3.79;100.00;102384.53;10486454;28;19916;-74
2023/01/27 11:46:42;;;;;;;;;;;;;;;3.77;100.00;102383.47;10485911;28;19916;-75
2023/01/27 11:51:42;;;;;;;;;;;;;;;3.80;100.00;102372.50;10485516;28;19916;-74
2023/01/27 11:56:44;;;;;;;;;;;;;;;3.85;100.00;102379.06;10483383;28;20377;-74
2023/01/27 12:01:48;;;;;;;;;;;;;;;3.84;100.00;102369.47;10483867;28;19917;-76
2023/01/27 12:07:14;;;;;;;;;;;;;;;3.89;100.00;102364.72;10468027;28;19928;-75
2023/01/27 12:12:24;;;;;;;;;;;;;;;3.95;100.00;102380.88;10449306;28;19920;-75
2023/01/27 12:17:25;;;;;;;;;;;;;;;3.93;100.00;102369.44;10485320;28;19928;-75
2023/01/27 12:22:26;;;;;;;;;;;;;;;3.96;100.00;102367.16;10473533;28;19924;-75
2023/01/27 12:27:27;;;;;;;;;;;;;;;3.91;100.00;102360.59;10457440;28;20360;-75
2023/01/27 12:32:38;;;;;;;;;;;;;;;3.85;100.00;102357.41;10477120;28;19920;-75
2023/01/27 12:37:38;;;;;;;;;;;;;;;3.78;100.00;102369.75;10476734;28;20340;-75
2023/01/27 12:42:43;;;;;;;;;;;;;;;3.73;100.00;102352.84;10488355;28;20004;-75
2023/01/27 12:47:56;;;;;;;;;;;;;;;3.62;100.00;102356.97;10454885;28;20335;-75
2023/01/27 12:53:00;;;;;;;;;;;;;;;3.53;100.00;102353.47;10440468;28;19974;-75
2023/01/27 12:58:00;;;;;;;;;;;;;;;3.55;100.00;102357.13;10441661;28;19916;-75
2023/01/27 13:03:05;;;;;;;;;;;;;;;3.56;100.00;102356.34;10452014;28;19928;-75
2023/01/27 13:08:05;;;;;;;;;;;;;;;3.60;100.00;102347.22;10441300;28;19924;-75
2023/01/27 13:13:13;;;;;;;;;;;;;;;3.64;100.00;102345.09;10423004;28;19921;-75
2023/01/27 13:18:17;;;;;;;;;;;;;;;3.66;100.00;102346.16;10465367;28;20338;-76
2023/01/27 13:23:25;;;;;;;;;;;;;;;3.66;100.00;102345.22;10465293;28;19962;-76
2023/01/27 13:28:44;;;;;;;;;;;;;;;3.64;100.00;102350.28;10464271;28;20440;-76
2023/01/27 13:33:46;;;;;;;;;;;;;;;3.63;100.00;102358.81;10481929;28;19955;-75
2023/01/27 13:38:47;;;;;;;;;;;;;;;3.61;100.00;102356.81;10502438;28;19916;-75
2023/01/27 13:43:50;;;;;;;;;;;;;;;3.65;100.00;102362.47;10523663;28;19916;-75
2023/01/27 13:48:54;;;;;;;;;;;;;;;3.72;100.00;102366.56;10522703;28;19925;-75
2023/01/27 13:54:03;;;;;;;;;;;;;;;3.68;100.00;102367.00;10455668;28;19916;-75
2023/01/27 13:59:07;;;;;;;;;;;;;;;3.71;100.00;102371.59;10483340;28;19924;-75
2023/01/27 14:04:23;;;;;;;;;;;;;;;3.65;100.00;102374.47;10482327;28;19946;-75
2023/01/27 14:09:26;;;;;;;;;;;;;;;3.57;100.00;102375.38;10476969;28;19916;-75
2023/01/27 14:14:30;;;;;;;;;;;;;;;3.51;100.00;102379.19;10521795;28;20007;-75
2023/01/27 14:19:30;;;;;;;;;;;;;;;3.56;100.00;102391.69;10513321;28;20393;-75
2023/01/27 14:24:31;;;;;;;;;;;;;;;3.59;100.00;102385.16;10513373;28;19931;-75
2023/01/27 14:29:37;;;;;;;;;;;;;;;3.56;100.00;102387.44;10527522;28;19938;-75
2023/01/27 14:34:49;;;;;;;;;;;;;;;3.57;100.00;102378.91;10530684;28;19920;-75
2023/01/27 14:40:13;;;;;;;;;;;;;;;3.58;100.00;102377.22;10530791;28;20007;-75
2023/01/27 14:45:22;;;;;;;;;;;;;;;3.56;100.00;102377.06;10517513;28;20424;-75
2023/01/27 14:50:43;;;;;;;;;;;;;;;3.55;100.00;102382.09;10530882;28;19916;-75
2023/01/27 14:55:46;;;;;;;;;;;;;;;3.46;100.00;102388.16;10512143;28;19922;-75
2023/01/27 15:00:55;;;;;;;;;;;;;;;3.45;100.00;102395.78;10529286;28;20346;-75
2023/01/27 15:05:57;;;;;;;;;;;;;;;3.40;100.00;102402.16;10528493;28;19966;-75
2023/01/27 15:10:57;;;;;;;;;;;;;;;3.34;100.00;102410.22;10510479;28;20348;-75
2023/01/27 15:15:57;;;;;;;;;;;;;;;3.28;100.00;102423.47;10500539;28;19970;-76
2023/01/27 15:21:17;;;;;;;;;;;;;;;3.21;100.00;102418.41;10501623;28;19921;-75
2023/01/27 15:26:18;;;;;;;;;;;;;;;3.21;100.00;102426.19;10518674;28;19927;-75
2023/01/27 15:31:20;;;;;;;;;;;;;;;3.15;100.00;102423.88;10493450;28;19920;-75
2023/01/27 15:36:26;;;;;;;;;;;;;;;3.12;100.00;102433.91;10485675;28;19927;-75
2023/01/27 15:41:27;;;;;;;;;;;;;;;3.05;100.00;102429.78;10498396;28;19928;-75
2023/01/27 15:46:27;;;;;;;;;;;;;;;3.08;100.00;102439.50;10475984;28;19920;-76
2023/01/27 15:51:28;;;;;;;;;;;;;;;3.06;100.00;102446.19;10515734;28;19927;-75
2023/01/27 15:56:45;;;;;;;;;;;;;;;3.02;100.00;102447.56;10522579;28;19926;-76
2023/01/27 16:01:46;;;;;;;;;;;;;;;3.01;100.00;102453.50;10507749;28;19920;-75
2023/01/27 16:06:47;;;;;;;;;;;;;;;2.98;100.00;102453.19;10523089;28;19924;-75
2023/01/27 16:11:58;;;;;;;;;;;;;;;2.91;100.00;102463.66;10467620;28;19935;-77
2023/01/27 16:17:07;;;;;;;;;;;;;;;2.89;100.00;102466.06;10483233;28;20272;-75
2023/01/27 16:22:10;;;;;;;;;;;;;;;2.91;100.00;102467.13;10487950;28;19927;-75
2023/01/27 16:27:29;;;;;;;;;;;;;;;2.88;100.00;102471.09;10476929;28;19920;-75
2023/01/27 16:32:34;;;;;;;;;;;;;;;2.80;100.00;102478.03;10504831;28;19927;-75
2023/01/27 16:37:35;;;;;;;;;;;;;;;2.72;100.00;102484.06;10498941;28;20462;-76
2023/01/27 16:42:43;;;;;;;;;;;;;;;2.63;100.00;102484.03;10507565;28;19963;-75
2023/01/27 16:47:44;;;;;;;;;;;;;;;2.69;100.00;102484.66;10467571;28;19928;-75
2023/01/27 16:52:45;;;;;;;;;;;;;;;2.65;100.00;102485.09;10467274;28;19927;-75
2023/01/27 16:57:45;;;;;;;;;;;;;;;2.58;100.00;102498.13;10519308;28;20371;-75
2023/01/27 17:02:45;;;;;;;;;;;;;;;2.56;100.00;102504.81;10481626;28;20404;-75
2023/01/27 17:08:06;;;;;;;;;;;;;;;2.55;100.00;102506.47;10508851;28;19920;-76
2023/01/27 17:13:11;;;;;;;;;;;;;;;2.55;100.00;102515.91;10464651;28;19920;-75
2023/01/27 17:18:13;;;;;;;;;;;;;;;2.52;100.00;102518.16;10474963;28;19927;-76
2023/01/27 17:23:23;;;;;;;;;;;;;;;2.49;100.00;102523.91;10506460;28;19949;-75
2023/01/27 17:28:25;;;;;;;;;;;;;;;2.43;100.00;102521.59;10501980;28;19965;-76
2023/01/27 17:33:25;;;;;;;;;;;;;;;2.43;100.00;102529.34;10477945;28;19969;-75
2023/01/27 17:38:52;;;;;;;;;;;;;;;2.43;100.00;102531.00;10523745;28;19985;-75
2023/01/27 17:43:54;;;;;;;;;;;;;;;2.42;100.00;102526.59;10494892;28;19920;-75
2023/01/27 17:48:59;;;;;;;;;;;;;;;2.45;100.00;102525.25;10481727;28;19916;-75
2023/01/27 17:53:59;;;;;;;;;;;;;;;2.45;100.00;102526.91;10505399;28;20387;-75
2023/01/27 17:59:20;;;;;;;;;;;;;;;2.47;100.00;102534.09;10489688;28;20053;-75
2023/01/27 18:04:21;;;;;;;;;;;;;;;2.48;100.00;102529.81;10514120;28;19923;-75
2023/01/27 18:09:25;;;;;;;;;;;;;;;2.45;100.00;102527.84;10498723;28;19924;-75
2023/01/27 18:14:26;;;;;;;;;;;;;;;2.49;100.00;102530.00;10478002;28;20387;-76
2023/01/27 18:19:26;;;;;;;;;;;;;;;2.45;100.00;102539.84;10470692;28;19927;-76
2023/01/27 18:24:26;;;;;;;;;;;;;;;2.41;100.00;102545.44;10457813;28;19974;-75
2023/01/27 18:29:36;;;;;;;;;;;;;;;2.43;100.00;102547.44;10511410;28;19930;-75
2023/01/27 18:34:46;;;;;;;;;;;;;;;2.38;100.00;102552.84;10508695;28;19927;-75
2023/01/27 18:39:46;;;;;;;;;;;;;;;2.39;100.00;102546.94;10510203;28;19970;-75
2023/01/27 18:44:47;;;;;;;;;;;;;;;2.41;100.00;102548.00;10490905;28;20014;-75
2023/01/27 18:49:49;;;;;;;;;;;;;;;2.44;100.00;102553.50;10468472;28;20015;-76
2023/01/27 18:54:51;;;;;;;;;;;;;;;2.41;100.00;102554.09;10481910;28;19924;-75
2023/01/27 18:59:52;;;;;;;;;;;;;;;2.38;100.00;102561.53;10484495;28;19925;-75
2023/01/27 19:04:52;;;;;;;;;;;;;;;2.35;100.00;102559.53;10486024;28;19920;-76
2023/01/27 19:09:52;;;;;;;;;;;;;;;2.31;100.00;102559.94;10513512;28;19920;-76
2023/01/27 19:14:53;;;;;;;;;;;;;;;2.31;100.00;102566.78;10495942;28;20007;-75
2023/01/27 19:19:53;;;;;;;;;;;;;;;2.32;100.00;102572.09;10509502;28;19919;-75
2023/01/27 19:24:54;;;;;;;;;;;;;;;2.28;100.00;102580.28;10518592;28;19927;-75
2023/01/27 19:29:54;;;;;;;;;;;;;;;2.25;100.00;102585.09;10479722;28;19928;-75
2023/01/27 19:34:54;;;;;;;;;;;;;;;2.27;100.00;102580.13;10501459;28;19924;-77
2023/01/27 19:39:55;;;;;;;;;;;;;;;2.28;100.00;102588.03;10460950;28;19932;-75
2023/01/27 19:44:56;;;;;;;;;;;;;;;2.31;100.00;102590.03;10466876;28;19920;-76
2023/01/27 19:49:56;;;;;;;;;;;;;;;2.37;100.00;102587.19;10486312;28;19920;-76
2023/01/27 19:54:57;;;;;;;;;;;;;;;2.37;100.00;102589.78;10521692;28;20360;-75
2023/01/27 19:59:57;;;;;;;;;;;;;;;2.37;100.00;102600.13;10511127;28;20292;-75
2023/01/27 20:04:58;;;;;;;;;;;;;;;2.35;100.00;102610.31;10487484;28;20008;-76
2023/01/27 20:09:58;;;;;;;;;;;;;;;2.33;100.00;102607.53;10517158;28;19969;-76
2023/01/27 20:14:59;;;;;;;;;;;;;;;2.35;100.00;102608.63;10493880;28;19921;-75
2023/01/27 20:19:59;;;;;;;;;;;;;;;2.36;100.00;102604.38;10517823;28;19927;-75
2023/01/27 20:24:59;;;;;;;;;;;;;;;2.31;100.00;102611.63;10490466;28;20343;-76
2023/01/27 20:30:00;;;;;;;;;;;;;;;2.27;100.00;102606.88;10486063;28;19950;-76
2023/01/27 20:35:00;;;;;;;;;;;;;;;2.23;100.00;102612.44;10482208;28;19920;-75
2023/01/27 20:40:01;;;;;;;;;;;;;;;2.20;100.00;102617.28;10485107;28;19928;-75
2023/01/27 20:45:01;;;;;;;;;;;;;;;2.14;100.00;102622.72;10514054;28;20428;-75
2023/01/27 20:50:02;;;;;;;;;;;;;;;2.13;100.00;102612.19;10487003;28;20284;-76
2023/01/27 20:55:02;;;;;;;;;;;;;;;2.09;100.00;102615.19;10472893;28;19920;-76
2023/01/27 21:00:03;;;;;;;;;;;;;;;2.09;100.00;102616.13;10466190;28;19962;-75
2023/01/27 21:05:03;;;;;;;;;;;;;;;2.08;100.00;102622.03;10451610;28;20265;-75
2023/01/27 21:10:04;;;;;;;;;;;;;;;2.05;100.00;102619.09;10506298;28;19924;-76
2023/01/27 21:15:08;;;;;;;;;;;;;;;2.03;100.00;102623.19;10503380;28;20007;-76
2023/01/27 21:20:09;;;;;;;;;;;;;;;2.01;100.00;102617.84;10465421;28;20013;-75
2023/01/27 21:25:09;;;;;;;;;;;;;;;1.99;100.00;102615.84;10486797;28;19927;-75
2023/01/27 21:30:10;;;;;;;;;;;;;;;1.95;100.00;102609.41;10515394;28;19916;-75
2023/01/27 21:35:10;;;;;;;;;;;;;;;1.98;100.00;102603.69;10479189;28;19969;-75
2023/01/27 21:40:11;;;;;;;;;;;;;;;1.99;100.00;102611.59;10495575;28;20256;-75
2023/01/27 21:45:11;;;;;;;;;;;;;;;2.01;100.00;102602.34;10506937;28;19920;-75
2023/01/27 21:50:13;;;;;;;;;;;;;;;2.02;100.00;102600.69;10509976;28;19921;-75
2023/01/27 21:55:18;;;;;;;;;;;;;;;2.02;100.00;102603.28;10494967;28;19920;-75
2023/01/27 22:00:20;;;;;;;;;;;;;;;2.00;100.00;102607.34;10493416;28;19927;-75
2023/01/27 22:05:20;;;;;;;;;;;;;;;2.00;100.00;102602.19;10475782;28;20283;-75
2023/01/27 22:10:22;;;;;;;;;;;;;;;1.99;100.00;102602.94;10519928;28;19930;-74
2023/01/27 22:15:22;;;;;;;;;;;;;;;1.97;100.00;102605.34;10535309;28;19966;-75
2023/01/27 22:20:23;;;;;;;;;;;;;;;1.99;100.00;102609.00;10510418;28;20428;-75
2023/01/27 22:25:25;;;;;;;;;;;;;;;2.00;100.00;102602.19;10479487;28;20295;-75
2023/01/27 22:30:26;;;;;;;;;;;;;;;2.02;100.00;102600.69;10507209;28;19920;-75
2023/01/27 22:35:26;;;;;;;;;;;;;;;1.99;100.00;102603.84;10515318;28;19925;-75
2023/01/27 22:40:27;;;;;;;;;;;;;;;1.96;100.00;102605.19;10503960;28;19928;-75
2023/01/27 22:45:27;;;;;;;;;;;;;;;1.93;100.00;102600.56;10492562;28;20352;-75
2023/01/27 22:50:27;;;;;;;;;;;;;;;1.94;100.00;102606.69;10499729;28;19946;-75
2023/01/27 22:55:28;;;;;;;;;;;;;;;1.93;100.00;102608.31;10478046;28;20010;-75
2023/01/27 23:00:28;;;;;;;;;;;;;;;1.89;100.00;102601.00;10500162;28;19935;-76
2023/01/27 23:05:28;;;;;;;;;;;;;;;1.92;100.00;102605.59;10495203;28;19924;-74
2023/01/27 23:10:29;;;;;;;;;;;;;;;1.89;100.00;102604.50;10488230;28;20003;-76
2023/01/27 23:15:29;;;;;;;;;;;;;;;1.92;100.00;102610.75;10474776;28;20187;-75
2023/01/27 23:20:30;;;;;;;;;;;;;;;1.70;100.00;102624.75;10526745;28;19924;-75
2023/01/27 23:25:30;;;;;;;;;;;;;;;1.82;100.00;102609.75;10526146;28;19926;-75
2023/01/27 23:30:31;;;;;;;;;;;;;;;1.80;100.00;102608.66;10510989;28;19920;-75
2023/01/27 23:35:31;;;;;;;;;;;;;;;1.85;100.00;102612.66;10496670;28;19920;-75
2023/01/27 23:40:31;;;;;;;;;;;;;;;1.86;100.00;102613.56;10527004;28;19920;-75
2023/01/27 23:45:32;;;;;;;;;;;;;;;1.84;100.00;102608.25;10525430;28;19924;-76
2023/01/27 23:50:32;;;;;;;;;;;;;;;1.77;100.00;102610.88;10498291;28;20104;-75
2023/01/27 23:55:32;;;;;;;;;;;;;;;1.79;100.00;102603.31;10509820;28;19916;-75
